Time;durP1;ratioP1;P1;durP2;ratioP2;P2;SDS_P1;SDS_P2;PMS_P1;PMS_P2;Temp;Humidity;BMP_temperature;BMP_pressure;BME280_temperature;BME280_humidity;BME280_pressure;Samples;Min_cycle;Max_cycle;Signal;HPM_P1;HPM_P2
2023/01/12 00:24:42;;;;;;;19.05;4.63;;;18.20;51.90;;;;;;5103028;28;20228;-75
2023/01/12 00:27:12;;;;;;;19.77;4.00;;;18.20;51.90;;;;;;5113419;28;20228;-74
2023/01/12 00:29:39;;;;;;;20.60;4.18;;;18.20;51.90;;;;;;5117192;28;20606;-74
2023/01/12 00:32:07;;;;;;;21.40;4.43;;;18.10;51.80;;;;;;5116400;28;20258;-74
2023/01/12 00:34:34;;;;;;;18.20;4.50;;;18.20;51.90;;;;;;5116547;28;20249;-74
2023/01/12 00:37:02;;;;;;;18.75;4.40;;;18.10;51.90;;;;;;5116621;28;20693;-74
2023/01/12 00:39:30;;;;;;;21.77;4.47;;;18.20;52.00;;;;;;5116492;28;20246;-74
2023/01/12 00:47:28;;;;;;;20.05;4.63;;;18.10;52.60;;;;;;5116200;28;20216;-75
2023/01/12 00:49:55;;;;;;;15.27;3.85;;;18.10;52.00;;;;;;5116469;28;20185;-75
2023/01/12 00:52:22;;;;;;;15.52;4.20;;;18.10;52.00;;;;;;5116437;28;20282;-75
2023/01/12 00:54:49;;;;;;;19.83;5.47;;;18.10;52.00;;;;;;5116012;28;20242;-74
2023/01/12 00:57:18;;;;;;;18.13;4.75;;;18.10;52.00;;;;;;5116004;28;20598;-74
2023/01/12 00:59:46;;;;;;;18.75;5.20;;;18.10;52.00;;;;;;5098251;28;20566;-74
2023/01/12 01:02:13;;;;;;;19.42;4.18;;;18.10;52.00;;;;;;5098417;28;20304;-74
2023/01/12 01:04:40;;;;;;;19.88;4.30;;;18.10;52.00;;;;;;5098052;28;20186;-74
2023/01/12 01:07:08;;;;;;;20.60;4.18;;;18.10;52.10;;;;;;5116072;28;20283;-74
2023/01/12 01:09:35;;;;;;;20.80;4.90;;;18.10;52.10;;;;;;5115752;28;20249;-74
2023/01/12 01:12:02;;;;;;;17.13;3.72;;;18.10;52.10;;;;;;5115507;28;20243;-74
2023/01/12 01:14:30;;;;;;;18.30;4.57;;;18.10;52.10;;;;;;5116276;28;20262;-74
2023/01/12 01:16:57;;;;;;;16.58;4.10;;;18.10;52.10;;;;;;5115958;28;20213;-74
2023/01/12 01:19:24;;;;;;;18.92;4.68;;;18.10;52.10;;;;;;5115978;28;20539;-74
2023/01/12 01:21:51;;;;;;;20.63;4.50;;;18.10;52.10;;;;;;5115687;28;20224;-74
2023/01/12 01:24:18;;;;;;;18.05;4.70;;;18.00;52.10;;;;;;5115517;28;20274;-74
2023/01/12 01:26:45;;;;;;;17.42;4.43;;;18.00;52.10;;;;;;5115488;28;20233;-74
2023/01/12 01:29:12;;;;;;;19.95;4.03;;;18.10;52.10;;;;;;5115380;28;20711;-75
2023/01/12 01:31:41;;;;;;;15.50;4.15;;;18.00;52.10;;;;;;5115696;28;20217;-74
2023/01/12 01:34:08;;;;;;;20.08;4.35;;;18.00;52.10;;;;;;5115626;28;20193;-74
2023/01/12 01:36:35;;;;;;;18.30;4.28;;;18.10;52.20;;;;;;5115293;28;20262;-74
2023/01/12 01:39:02;;;;;;;14.95;4.13;;;18.00;52.10;;;;;;5114443;28;20234;-74
2023/01/12 01:41:31;;;;;;;19.35;4.10;;;18.10;52.20;;;;;;5115680;28;20282;-74
2023/01/12 01:44:00;;;;;;;19.77;3.95;;;18.00;52.10;;;;;;5115473;28;20276;-74
2023/01/12 01:46:35;;;;;;;21.45;4.60;;;18.00;52.20;;;;;;5115086;28;20236;-74
2023/01/12 01:49:17;;;;;;;17.95;4.47;;;18.00;52.20;;;;;;5115288;28;20188;-74
2023/01/12 01:51:46;;;;;;;20.85;5.32;;;18.00;52.20;;;;;;5115095;28;20217;-74
2023/01/12 01:54:15;;;;;;;20.33;3.85;;;18.00;52.20;;;;;;5114952;28;20193;-74
2023/01/12 01:56:43;;;;;;;17.27;4.10;;;18.00;52.20;;;;;;5114935;28;20259;-75
2023/01/12 01:59:15;;;;;;;16.50;4.00;;;18.00;52.20;;;;;;5096933;28;20204;-75
2023/01/12 02:01:42;;;;;;;16.38;3.50;;;18.00;52.30;;;;;;5114892;28;20209;-74
2023/01/12 02:04:11;;;;;;;18.15;4.10;;;18.00;52.30;;;;;;5115070;28;20236;-74
2023/01/12 02:06:39;;;;;;;21.58;4.35;;;18.00;52.30;;;;;;5114749;28;20254;-74
2023/01/12 02:09:10;;;;;;;18.55;3.97;;;18.00;52.30;;;;;;5096434;28;20632;-74
2023/01/12 02:17:19;;;;;;;20.80;4.57;;;18.00;52.30;;;;;;5114746;28;20249;-75
2023/01/12 02:20:37;;;;;;;17.77;3.70;;;18.00;52.40;;;;;;5086802;28;20251;-74
2023/01/12 02:23:40;;;;;;;15.77;4.18;;;17.90;52.30;;;;;;5010022;28;20205;-74
2023/01/12 02:26:36;;;;;;;17.30;3.72;;;17.90;52.30;;;;;;5011697;28;20236;-74
2023/01/12 02:29:43;;;;;;;19.23;4.93;;;17.90;52.40;;;;;;5098828;28;20280;-74
2023/01/12 02:32:24;;;;;;;17.88;4.28;;;17.90;52.40;;;;;;5114562;28;20212;-74
2023/01/12 02:34:58;;;;;;;19.17;4.32;;;18.00;52.50;;;;;;5114339;28;20245;-74
2023/01/12 02:37:37;;;;;;;15.70;3.80;;;17.90;52.40;;;;;;5114522;28;20273;-74
2023/01/12 02:40:11;;;;;;;20.77;4.13;;;17.90;52.40;;;;;;5096370;28;20243;-74
2023/01/12 02:42:41;;;;;;;18.45;3.90;;;17.90;52.40;;;;;;5114523;28;20186;-74
2023/01/12 02:45:19;;;;;;;13.90;3.60;;;17.90;52.40;;;;;;5114328;28;20189;-74
2023/01/12 02:47:55;;;;;;;15.10;4.13;;;17.90;52.50;;;;;;5113789;28;20269;-74
2023/01/12 02:50:29;;;;;;;18.02;3.95;;;17.90;52.50;;;;;;5113843;28;20191;-75
2023/01/12 02:53:01;;;;;;;17.35;4.03;;;17.90;52.50;;;;;;5096506;28;20193;-74
2023/01/12 02:55:30;;;;;;;18.85;3.80;;;17.90;52.50;;;;;;5113667;28;20193;-74
2023/01/12 02:57:58;;;;;;;12.70;3.85;;;17.90;52.50;;;;;;5114026;28;20193;-74
2023/01/12 03:00:26;;;;;;;16.38;3.63;;;17.90;52.50;;;;;;5113793;28;20219;-74
2023/01/12 03:02:55;;;;;;;14.88;4.07;;;17.90;52.50;;;;;;5113516;28;20192;-74
2023/01/12 03:05:22;;;;;;;26.52;4.63;;;17.90;52.60;;;;;;5113334;28;20186;-74
2023/01/12 03:07:54;;;;;;;17.42;4.35;;;17.90;52.50;;;;;;5113770;28;20216;-74
2023/01/12 03:10:35;;;;;;;17.83;4.45;;;17.90;52.60;;;;;;5113708;28;20214;-74
2023/01/12 03:13:06;;;;;;;14.60;3.45;;;17.90;52.60;;;;;;5113783;28;20287;-74
2023/01/12 03:15:35;;;;;;;15.65;4.05;;;17.90;52.60;;;;;;5113255;28;20192;-74
2023/01/12 03:18:11;;;;;;;18.67;4.25;;;17.90;52.70;;;;;;5113352;28;20242;-74
2023/01/12 03:20:45;;;;;;;15.88;3.75;;;17.90;52.70;;;;;;5113537;28;20213;-74
2023/01/12 03:23:16;;;;;;;19.08;3.97;;;17.90;52.70;;;;;;5113280;28;20193;-74
2023/01/12 03:25:45;;;;;;;14.77;3.80;;;17.90;52.70;;;;;;5113389;28;20274;-74
2023/01/12 03:28:15;;;;;;;19.33;4.70;;;17.90;52.70;;;;;;5113606;28;20221;-74
2023/01/12 03:30:48;;;;;;;14.80;3.65;;;17.90;52.70;;;;;;5113315;28;20258;-74
2023/01/12 03:33:18;;;;;;;23.33;3.80;;;17.90;52.70;;;;;;5112884;28;20696;-74
2023/01/12 03:35:54;;;;;;;20.42;4.63;;;17.90;52.70;;;;;;5112905;28;20217;-74
2023/01/12 03:38:27;;;;;;;21.45;4.25;;;17.90;52.80;;;;;;5113012;28;20189;-74
2023/01/12 03:41:03;;;;;;;17.20;4.07;;;17.80;52.70;;;;;;5113208;28;20290;-74
2023/01/12 03:43:36;;;;;;;18.90;4.00;;;17.80;52.70;;;;;;5113167;28;20192;-74
2023/01/12 03:46:11;;;;;;;16.70;3.72;;;17.90;52.90;;;;;;5113140;28;20217;-74
2023/01/12 03:48:46;;;;;;;15.82;3.85;;;17.90;52.90;;;;;;5095137;28;20188;-74
2023/01/12 03:51:18;;;;;;;17.90;3.92;;;17.80;52.80;;;;;;5112989;28;20566;-74
2023/01/12 03:53:47;;;;;;;17.80;4.00;;;17.80;52.80;;;;;;5113138;28;20181;-74
2023/01/12 03:56:16;;;;;;;14.90;3.50;;;17.80;52.80;;;;;;5112988;28;20816;-74
2023/01/12 03:58:44;;;;;;;16.70;4.00;;;17.90;52.90;;;;;;5113039;28;20189;-74
2023/01/12 04:01:12;;;;;;;20.52;4.15;;;17.80;52.90;;;;;;5112658;28;20225;-74
2023/01/12 04:03:41;;;;;;;14.35;3.33;;;17.90;53.00;;;;;;5112556;28;20185;-74
2023/01/12 04:06:08;;;;;;;18.48;4.05;;;17.80;52.90;;;;;;5112367;28;20213;-74
2023/01/12 04:08:35;;;;;;;17.77;3.67;;;17.80;52.90;;;;;;5112881;28;20286;-74
2023/01/12 04:12:08;;;;;;;16.52;3.78;;;17.80;52.90;;;;;;5112777;28;20221;-74
2023/01/12 04:13:49;;;;;;;19.95;4.57;;;17.80;52.90;;;;;;5112536;28;20205;-74
2023/01/12 04:16:17;;;;;;;13.85;3.60;;;17.80;53.00;;;;;;5112822;28;20312;-74
2023/01/12 04:18:45;;;;;;;22.13;3.83;;;17.80;53.00;;;;;;5112782;28;20197;-74
2023/01/12 04:23:53;;;;;;;16.83;3.55;;;17.80;53.10;;;;;;5111248;28;20788;-74
2023/01/12 04:26:21;;;;;;;17.77;3.95;;;17.80;53.10;;;;;;5094223;28;20660;-74
2023/01/12 04:28:48;;;;;;;18.67;3.97;;;17.80;53.10;;;;;;5112768;28;20235;-74
2023/01/12 04:31:16;;;;;;;18.15;3.88;;;17.80;53.20;;;;;;5112507;28;20278;-74
2023/01/12 04:33:43;;;;;;;18.60;4.70;;;17.80;53.20;;;;;;5094679;28;20238;-74
2023/01/12 04:36:12;;;;;;;13.27;3.33;;;17.80;53.20;;;;;;5112235;28;20702;-74
2023/01/12 04:38:39;;;;;;;14.15;3.72;;;17.80;53.20;;;;;;5112218;28;20212;-74
2023/01/12 04:41:07;;;;;;;18.80;3.72;;;17.80;53.30;;;;;;5112488;28;20208;-74
2023/01/12 04:43:34;;;;;;;12.93;3.25;;;17.80;53.30;;;;;;5094420;28;20231;-74
2023/01/12 04:46:05;;;;;;;10.18;2.85;;;17.80;53.30;;;;;;5112464;28;20633;-74
2023/01/12 04:48:33;;;;;;;12.43;3.10;;;17.80;53.40;;;;;;5112376;28;20224;-74
2023/01/12 04:51:00;;;;;;;15.68;3.30;;;17.80;53.30;;;;;;5112426;28;20263;-74
2023/01/12 04:53:29;;;;;;;13.88;3.20;;;17.80;53.40;;;;;;5112132;28;20185;-74
2023/01/12 04:55:57;;;;;;;12.77;3.13;;;17.80;53.40;;;;;;5111980;28;20413;-74
2023/01/12 04:58:24;;;;;;;13.85;3.70;;;17.70;53.30;;;;;;5094224;28;20185;-74
2023/01/12 05:00:51;;;;;;;14.40;3.50;;;17.80;53.50;;;;;;5093873;28;20247;-74
2023/01/12 05:03:18;;;;;;;12.10;3.35;;;17.80;53.50;;;;;;5112071;28;20189;-74
2023/01/12 05:05:45;;;;;;;15.20;3.13;;;17.70;53.50;;;;;;5112606;28;20186;-74
2023/01/12 05:11:00;;;;;;;15.93;3.72;;;17.70;53.50;;;;;;5111855;28;20587;-74
2023/01/12 05:13:31;;;;;;;13.80;3.35;;;17.80;53.70;;;;;;5112375;28;20189;-74
2023/01/12 05:16:08;;;;;;;15.32;3.10;;;17.80;54.30;;;;;;5115860;28;20278;-74
2023/01/12 05:18:35;;;;;;;12.57;3.30;;;17.80;53.70;;;;;;5115620;28;20185;-74
2023/01/12 05:21:03;;;;;;;10.15;3.13;;;17.80;53.70;;;;;;5115921;28;20274;-74
2023/01/12 05:23:30;;;;;;;18.85;3.72;;;17.80;53.70;;;;;;5115391;28;20647;-74
2023/01/12 05:26:00;;;;;;;16.27;3.70;;;17.70;53.70;;;;;;5115397;28;20217;-74
2023/01/12 05:28:28;;;;;;;14.90;3.85;;;17.80;53.70;;;;;;5115733;28;20648;-74
2023/01/12 05:31:01;;;;;;;15.30;4.00;;;17.80;53.70;;;;;;5115390;28;20634;-74
2023/01/12 05:33:28;;;;;;;13.88;3.30;;;17.80;53.80;;;;;;5098197;28;20238;-74
2023/01/12 05:35:55;;;;;;;15.02;3.67;;;17.80;53.70;;;;;;5115582;28;20217;-74
2023/01/12 05:38:22;;;;;;;11.98;3.10;;;17.70;53.70;;;;;;5097422;28;20508;-74
2023/01/12 05:40:49;;;;;;;12.98;3.75;;;17.70;53.70;;;;;;5115397;28;20247;-74
2023/01/12 05:46:03;;;;;;;17.02;3.90;;;17.70;53.70;;;;;;5115575;28;20208;-74
2023/01/12 05:48:31;;;;;;;14.65;3.47;;;17.80;53.70;;;;;;5114938;28;20266;-74
2023/01/12 05:51:01;;;;;;;15.60;3.55;;;17.80;53.70;;;;;;5115334;28;20213;-74
2023/01/12 05:53:28;;;;;;;11.15;2.75;;;17.80;53.70;;;;;;5114951;28;20221;-74
2023/01/12 05:55:56;;;;;;;12.27;3.38;;;17.80;53.80;;;;;;5115140;28;20217;-74
2023/01/12 05:58:24;;;;;;;12.85;3.05;;;17.80;53.70;;;;;;5115174;28;20193;-74
2023/01/12 06:00:52;;;;;;;10.68;2.80;;;17.80;53.80;;;;;;5114527;28;20249;-74
2023/01/12 06:03:19;;;;;;;15.23;3.10;;;17.80;53.70;;;;;;5115107;28;20190;-74
2023/01/12 06:05:52;;;;;;;11.23;3.63;;;17.90;53.90;;;;;;5114989;28;20258;-74
2023/01/12 06:08:20;;;;;;;12.50;3.58;;;17.80;53.80;;;;;;5114950;28;20213;-74
2023/01/12 06:10:47;;;;;;;10.68;3.17;;;17.90;53.80;;;;;;5114784;28;20185;-74
2023/01/12 06:16:04;;;;;;;12.50;3.30;;;17.90;53.80;;;;;;5114623;28;20578;-74
2023/01/12 06:18:34;;;;;;;10.95;3.17;;;17.90;53.90;;;;;;5114736;28;20246;-74
2023/01/12 06:21:01;;;;;;;11.00;2.95;;;17.90;53.80;;;;;;5114697;28;20278;-75
2023/01/12 06:23:28;;;;;;;14.35;3.55;;;17.90;53.80;;;;;;5096396;28;20600;-74
2023/01/12 06:25:55;;;;;;;12.52;3.10;;;17.90;53.80;;;;;;5113927;28;20235;-74
2023/01/12 06:28:23;;;;;;;12.90;3.22;;;18.00;53.90;;;;;;5096328;28;20269;-74
2023/01/12 06:30:56;;;;;;;14.43;3.50;;;18.00;54.00;;;;;;5114399;28;20193;-74
2023/01/12 06:33:26;;;;;;;10.25;2.78;;;18.00;54.00;;;;;;5114435;28;20195;-74
2023/01/12 06:35:54;;;;;;;8.73;3.15;;;18.00;53.90;;;;;;5096088;28;20236;-74
2023/01/12 06:38:23;;;;;;;15.98;4.20;;;18.10;54.00;;;;;;5114416;28;20242;-74
2023/01/12 06:40:50;;;;;;;10.13;3.15;;;18.10;54.00;;;;;;5096252;28;20309;-74
2023/01/12 06:43:18;;;;;;;8.98;2.45;;;18.10;54.00;;;;;;5114234;28;20606;-74
2023/01/12 06:45:46;;;;;;;12.88;3.15;;;18.10;54.00;;;;;;5114071;28;20193;-74
2023/01/12 06:48:13;;;;;;;8.02;2.60;;;18.10;54.00;;;;;;5114000;28;20217;-74
2023/01/12 06:50:41;;;;;;;8.13;2.60;;;18.10;54.00;;;;;;5114118;28;20596;-74
2023/01/12 06:53:09;;;;;;;9.20;3.42;;;18.10;54.00;;;;;;5113783;28;20181;-74
2023/01/12 06:55:37;;;;;;;9.07;2.72;;;18.10;54.00;;;;;;5113635;28;20235;-74
2023/01/12 06:58:04;;;;;;;9.70;2.78;;;18.20;54.10;;;;;;5113914;28;20269;-74
2023/01/12 07:00:32;;;;;;;10.15;2.80;;;18.20;54.00;;;;;;5095029;28;20250;-74
2023/01/12 07:02:59;;;;;;;14.80;3.45;;;18.20;54.10;;;;;;5113664;28;20213;-74
2023/01/12 07:05:26;;;;;;;10.30;2.65;;;18.20;54.00;;;;;;5095756;28;20230;-74
2023/01/12 07:08:00;;;;;;;11.05;2.63;;;18.20;54.00;;;;;;5114069;28;20229;-74
2023/01/12 07:10:27;;;;;;;10.43;2.80;;;18.20;54.10;;;;;;5113713;28;20277;-74
2023/01/12 07:12:56;;;;;;;14.27;3.47;;;18.20;54.00;;;;;;5113995;28;20282;-74
2023/01/12 07:15:29;;;;;;;9.65;2.72;;;18.20;54.00;;;;;;5113834;28;20190;-74
2023/01/12 07:17:56;;;;;;;10.32;2.78;;;18.20;54.00;;;;;;5095552;28;20224;-74
2023/01/12 07:20:27;;;;;;;12.90;2.88;;;18.20;54.00;;;;;;5113603;28;20276;-74
2023/01/12 07:22:55;;;;;;;13.63;3.35;;;18.20;54.00;;;;;;5113600;28;20304;-74
2023/01/12 07:25:24;;;;;;;13.30;2.75;;;18.20;54.00;;;;;;5113287;28;20703;-74
2023/01/12 07:27:52;;;;;;;11.27;3.00;;;18.30;54.10;;;;;;5113600;28;20253;-74
2023/01/12 07:30:20;;;;;;;9.77;2.72;;;18.30;54.10;;;;;;5113426;28;20254;-74
2023/01/12 07:32:48;;;;;;;11.27;2.95;;;18.30;54.10;;;;;;5113330;28;20213;-74
2023/01/12 07:35:18;;;;;;;8.95;3.13;;;18.30;54.10;;;;;;5095511;28;20246;-74
2023/01/12 07:37:48;;;;;;;10.50;2.80;;;18.30;54.10;;;;;;5112527;28;20220;-74
2023/01/12 07:40:17;;;;;;;9.63;2.88;;;18.30;54.10;;;;;;5112836;28;20647;-74
2023/01/12 07:42:46;;;;;;;11.35;2.90;;;18.30;54.10;;;;;;5113023;28;20249;-74
2023/01/12 07:45:13;;;;;;;9.15;2.88;;;18.30;54.00;;;;;;5095099;28;20272;-74
2023/01/12 07:47:43;;;;;;;10.88;2.50;;;18.30;54.00;;;;;;5112989;28;20261;-74
2023/01/12 07:50:11;;;;;;;11.75;3.08;;;18.30;54.00;;;;;;5112689;28;20227;-74
2023/01/12 07:52:40;;;;;;;11.80;2.92;;;18.40;54.20;;;;;;5107740;28;20212;-74
2023/01/12 07:55:08;;;;;;;12.23;2.92;;;18.40;54.30;;;;;;5090533;27;20301;-74
2023/01/12 07:57:37;;;;;;;15.20;4.20;;;18.40;54.30;;;;;;5110022;28;20221;-74
2023/01/12 08:00:08;;;;;;;12.15;3.60;;;18.40;54.30;;;;;;5106341;28;20197;-73
2023/01/12 08:02:35;;;;;;;14.65;3.25;;;18.40;54.30;;;;;;5108924;28;20312;-74
2023/01/12 08:05:05;;;;;;;11.38;3.20;;;18.40;54.30;;;;;;5105327;28;20197;-74
2023/01/12 08:07:33;;;;;;;10.43;2.85;;;18.40;54.30;;;;;;5111423;28;20228;-75
2023/01/12 08:10:03;;;;;;;12.68;3.20;;;18.40;54.30;;;;;;5085093;28;20209;-75
2023/01/12 08:12:33;;;;;;;12.77;2.90;;;18.50;54.40;;;;;;5098058;28;20485;-74
2023/01/12 08:15:03;;;;;;;11.20;3.13;;;18.50;54.40;;;;;;5110846;28;20654;-76
2023/01/12 08:17:38;;;;;;;9.45;3.13;;;18.50;54.40;;;;;;5093410;28;20456;-75
2023/01/12 08:20:11;;;;;;;14.23;3.47;;;18.50;54.40;;;;;;5097597;28;20208;-76
2023/01/12 08:22:43;;;;;;;9.65;2.60;;;18.50;54.30;;;;;;5080636;28;20210;-74
2023/01/12 08:25:15;;;;;;;11.68;3.08;;;18.50;54.30;;;;;;5090682;28;20784;-74
2023/01/12 08:27:45;;;;;;;17.50;3.10;;;18.60;54.40;;;;;;5091001;28;20217;-76
2023/01/12 08:30:15;;;;;;;10.40;3.47;;;18.60;54.40;;;;;;5073702;28;20193;-74
2023/01/12 08:32:44;;;;;;;12.40;2.90;;;18.60;54.40;;;;;;5108061;28;20217;-76
2023/01/12 08:35:13;;;;;;;12.73;2.90;;;18.60;54.40;;;;;;5111174;28;20189;-72
2023/01/12 08:37:40;;;;;;;16.17;3.17;;;18.60;54.40;;;;;;5085424;28;20224;-73
2023/01/12 08:40:10;;;;;;;14.93;3.30;;;18.70;54.50;;;;;;5105156;28;20209;-73
2023/01/12 08:42:37;;;;;;;13.27;3.15;;;18.70;54.50;;;;;;5111278;28;20221;-75
2023/01/12 08:45:07;;;;;;;10.13;2.72;;;18.70;54.50;;;;;;5110123;28;20205;-74
2023/01/12 08:47:34;;;;;;;12.90;3.00;;;18.70;54.50;;;;;;5102788;28;20581;-73
2023/01/12 08:50:07;;;;;;;13.57;2.95;;;18.80;54.60;;;;;;5115732;28;20217;-72
2023/01/12 08:52:36;;;;;;;12.82;2.92;;;18.80;54.60;;;;;;5077164;28;20301;-72
2023/01/12 08:55:04;;;;;;;11.88;3.03;;;18.80;54.60;;;;;;5094297;28;20186;-78
2023/01/12 08:57:31;;;;;;;14.13;3.15;;;18.80;54.60;;;;;;5103005;28;20255;-73
2023/01/12 09:00:07;;;;;;;14.38;3.20;;;18.80;54.60;;;;;;5109625;28;20800;-79
2023/01/12 09:02:40;;;;;;;14.75;3.28;;;18.80;54.60;;;;;;5107310;28;20227;-76
2023/01/12 09:05:10;;;;;;;11.85;3.05;;;18.80;54.60;;;;;;5052701;28;20573;-72
2023/01/12 09:07:38;;;;;;;13.60;2.38;;;18.80;54.60;;;;;;5097723;28;20225;-76
2023/01/12 09:10:07;;;;;;;10.60;2.88;;;18.90;54.70;;;;;;5108110;28;20302;-75
2023/01/12 09:12:35;;;;;;;13.68;2.97;;;18.90;54.70;;;;;;5105381;28;20296;-76
2023/01/12 09:15:02;;;;;;;10.93;3.17;;;18.90;54.70;;;;;;5104186;28;20857;-76
2023/01/12 09:17:30;;;;;;;14.68;3.17;;;18.90;54.60;;;;;;5094122;28;20220;-75
2023/01/12 09:19:58;;;;;;;12.95;3.22;;;18.90;54.50;;;;;;5097043;28;20695;-76
2023/01/12 09:22:28;;;;;;;12.60;2.92;;;19.00;54.50;;;;;;5106170;28;20268;-76
2023/01/12 09:24:55;;;;;;;11.85;3.08;;;19.00;54.50;;;;;;5105496;28;20229;-76
2023/01/12 09:27:23;;;;;;;11.55;3.10;;;19.00;54.50;;;;;;5113199;28;20255;-77
2023/01/12 09:29:52;;;;;;;13.45;3.03;;;19.00;54.40;;;;;;5101262;28;20221;-76
2023/01/12 09:32:20;;;;;;;12.10;2.80;;;19.00;54.40;;;;;;5097729;28;20218;-75
2023/01/12 09:34:48;;;;;;;14.15;3.42;;;19.00;54.40;;;;;;5112613;28;20193;-75
2023/01/12 09:37:15;;;;;;;12.52;2.92;;;19.00;54.40;;;;;;5113181;28;20213;-74
2023/01/12 09:39:44;;;;;;;17.45;3.30;;;19.00;54.40;;;;;;5110493;28;20258;-74
2023/01/12 09:47:54;;;;;;;13.60;3.03;;;19.10;54.40;;;;;;5105864;28;20728;-74
2023/01/12 09:50:30;;;;;;;10.77;2.90;;;19.10;54.40;;;;;;5084157;28;20256;-72
2023/01/12 09:53:02;;;;;;;14.40;3.17;;;19.10;54.40;;;;;;5105469;28;20300;-76
2023/01/12 09:55:46;;;;;;;10.30;2.97;;;19.10;54.40;;;;;;5110307;28;20205;-76
2023/01/12 09:58:35;;;;;;;11.57;2.83;;;19.10;54.30;;;;;;5106271;28;20216;-73
2023/01/12 10:01:10;;;;;;;11.20;3.03;;;19.10;54.30;;;;;;5095366;28;20186;-73
2023/01/12 10:03:40;;;;;;;12.95;3.22;;;19.20;54.40;;;;;;5101929;28;20735;-77
2023/01/12 10:06:14;;;;;;;13.88;2.90;;;19.20;54.40;;;;;;5112883;28;20659;-75
2023/01/12 10:08:44;;;;;;;14.23;3.30;;;19.20;54.70;;;;;;5110593;28;20225;-77
2023/01/12 10:11:21;;;;;;;14.45;3.38;;;19.20;54.90;;;;;;5096905;28;20569;-75
2023/01/12 10:14:25;;;;;;;13.52;3.17;;;19.20;54.80;;;;;;5109056;28;20224;-74
2023/01/12 10:17:17;;;;;;;13.32;2.92;;;19.20;54.90;;;;;;5092295;28;20225;-76
2023/01/12 10:19:51;;;;;;;17.08;2.90;;;19.20;54.90;;;;;;5105656;28;20619;-75
2023/01/12 10:22:35;;;;;;;14.73;3.03;;;19.20;54.90;;;;;;5105014;28;20217;-75
2023/01/12 10:25:22;;;;;;;12.15;3.03;;;19.20;54.90;;;;;;5110242;28;20684;-77
2023/01/12 10:27:53;;;;;;;9.90;2.72;;;19.20;54.90;;;;;;5106446;28;20760;-74
2023/01/12 10:30:26;;;;;;;11.32;2.92;;;19.20;54.80;;;;;;5097914;28;20231;-75
2023/01/12 10:32:53;;;;;;;20.10;3.20;;;19.20;54.90;;;;;;5093312;28;20230;-75
2023/01/12 10:35:23;;;;;;;15.48;3.45;;;19.20;54.90;;;;;;5100594;28;20284;-77
2023/01/12 10:37:53;;;;;;;16.50;3.40;;;19.20;54.90;;;;;;5097157;28;20855;-76
2023/01/12 10:40:29;;;;;;;18.35;3.50;;;19.20;54.70;;;;;;5101721;28;20258;-75
2023/01/12 10:43:20;;;;;;;15.48;3.22;;;19.30;54.80;;;;;;5100479;28;20265;-74
2023/01/12 10:46:03;;;;;;;12.32;3.15;;;19.30;54.80;;;;;;5091423;28;20296;-74
2023/01/12 10:48:31;;;;;;;16.25;3.17;;;19.30;54.80;;;;;;5107450;28;20307;-75
2023/01/12 10:51:01;;;;;;;11.43;3.13;;;19.30;54.70;;;;;;5108451;28;20674;-74
2023/01/12 10:53:34;;;;;;;16.50;3.03;;;19.30;54.70;;;;;;5107951;28;20666;-75
2023/01/12 10:56:13;;;;;;;13.23;3.08;;;19.30;54.60;;;;;;5107936;28;20637;-75
2023/01/12 10:58:43;;;;;;;12.38;3.40;;;19.30;54.50;;;;;;5108072;28;20216;-74
2023/01/12 11:01:14;;;;;;;11.90;3.25;;;19.30;54.50;;;;;;5109229;28;20193;-74
2023/01/12 11:03:41;;;;;;;14.40;3.17;;;19.30;54.40;;;;;;5108496;28;20232;-74
2023/01/12 11:06:23;;;;;;;12.57;2.95;;;19.30;54.40;;;;;;5108671;28;20667;-75
2023/01/12 11:08:51;;;;;;;15.07;3.13;;;19.30;54.40;;;;;;5109078;28;20229;-73
2023/01/12 11:11:26;;;;;;;13.43;3.75;;;19.30;54.30;;;;;;5090851;28;20654;-75
2023/01/12 11:13:57;;;;;;;9.55;2.88;;;19.30;54.30;;;;;;5090216;28;20711;-81
2023/01/12 11:16:26;;;;;;;10.85;2.72;;;19.30;54.30;;;;;;5088521;28;20345;-77
2023/01/12 11:19:16;;;;;;;13.25;3.80;;;19.30;54.20;;;;;;5089124;28;20244;-78
2023/01/12 11:21:49;;;;;;;14.93;2.75;;;19.30;54.10;;;;;;5088030;28;20231;-75
2023/01/12 11:24:30;;;;;;;14.05;3.33;;;19.30;54.20;;;;;;5089068;28;20304;-77
2023/01/12 11:27:01;;;;;;;11.25;2.47;;;19.40;54.40;;;;;;5108245;28;20274;-72
2023/01/12 11:29:50;;;;;;;14.25;3.42;;;19.40;54.30;;;;;;5108193;28;20705;-74
2023/01/12 11:32:30;;;;;;;11.02;3.22;;;19.40;54.20;;;;;;5092859;28;20259;-75
2023/01/12 11:35:00;;;;;;;14.18;3.20;;;19.40;54.20;;;;;;5052774;28;20271;-74
2023/01/12 11:37:29;;;;;;;11.60;2.85;;;19.40;54.20;;;;;;5098033;28;20233;-75
2023/01/12 11:40:06;;;;;;;14.85;2.70;;;19.40;54.10;;;;;;5089063;28;20194;-75
2023/01/12 11:45:27;;;;;;;12.63;3.17;;;19.40;54.10;;;;;;5099622;28;20663;-76
2023/01/12 11:48:00;;;;;;;11.57;2.95;;;19.40;54.10;;;;;;5101246;28;20220;-78
2023/01/12 11:50:30;;;;;;;12.40;2.90;;;19.30;53.90;;;;;;5088604;28;20244;-76
2023/01/12 11:52:58;;;;;;;11.93;3.00;;;19.40;54.00;;;;;;5097030;28;20705;-78
2023/01/12 11:55:37;;;;;;;11.48;3.05;;;19.40;54.00;;;;;;5105427;28;20234;-77
2023/01/12 11:58:13;;;;;;;13.55;3.00;;;19.30;53.90;;;;;;5095674;28;20269;-77
2023/01/12 12:03:59;;;;;;;10.95;2.95;;;19.40;53.90;;;;;;5124913;27;21194;-75
2023/01/12 12:06:56;;;;;;;10.10;2.50;;;19.40;53.90;;;;;;5119817;27;20679;-74
2023/01/12 12:09:49;;;;;;;10.15;2.83;;;19.30;53.80;;;;;;5123350;27;20232;-74
2023/01/12 12:12:26;;;;;;;12.65;3.10;;;19.40;53.90;;;;;;5124207;27;20209;-77
2023/01/12 12:15:06;;;;;;;12.38;3.10;;;19.40;53.90;;;;;;5123768;28;20196;-76
2023/01/12 12:17:45;;;;;;;11.88;3.42;;;19.30;53.80;;;;;;5123770;27;20701;-74
2023/01/12 12:20:28;;;;;;;11.38;2.53;;;19.40;53.90;;;;;;5124013;28;20192;-75
2023/01/12 12:23:07;;;;;;;11.13;3.10;;;19.40;53.90;;;;;;5125143;27;20232;-74
2023/01/12 12:25:43;;;;;;;12.98;2.65;;;19.40;53.80;;;;;;5123652;28;20193;-74
2023/01/12 12:28:33;;;;;;;9.38;2.80;;;19.40;53.80;;;;;;5125597;27;20644;-74
2023/01/12 12:31:12;;;;;;;13.73;2.78;;;19.40;53.80;;;;;;5121697;27;20204;-76
2023/01/12 12:34:08;;;;;;;9.70;2.90;;;19.40;53.80;;;;;;5105347;28;20591;-74
2023/01/12 12:36:43;;;;;;;8.27;2.58;;;19.40;53.80;;;;;;5080176;28;20221;-73
2023/01/12 12:39:33;;;;;;;8.63;2.72;;;19.40;53.80;;;;;;5125822;27;20227;-77
2023/01/12 12:45:19;;;;;;;13.20;3.15;;;19.40;53.80;;;;;;5125750;27;20207;-74
2023/01/12 12:48:10;;;;;;;12.05;2.88;;;19.40;53.80;;;;;;5125649;27;20228;-74
2023/01/12 12:50:43;;;;;;;13.98;2.80;;;19.40;53.80;;;;;;5121852;27;20257;-74
2023/01/12 12:53:27;;;;;;;10.05;3.03;;;19.40;53.70;;;;;;5125368;27;20212;-74
2023/01/12 12:55:58;;;;;;;10.70;2.85;;;19.40;53.70;;;;;;5121083;28;20204;-73
2023/01/12 12:58:44;;;;;;;10.40;2.97;;;19.40;53.80;;;;;;5120538;28;20316;-73
2023/01/12 13:01:57;;;;;;;9.68;2.47;;;19.40;53.80;;;;;;5119910;28;20204;-73
2023/01/12 13:05:10;;;;;;;10.20;2.53;;;19.40;53.70;;;;;;5123042;27;20586;-75
2023/01/12 13:07:44;;;;;;;10.45;2.90;;;19.40;53.80;;;;;;5053622;28;20221;-76
2023/01/12 13:10:29;;;;;;;10.45;2.83;;;19.40;53.90;;;;;;5056032;28;20234;-74
2023/01/12 13:12:59;;;;;;;15.00;2.90;;;19.40;53.90;;;;;;5054111;28;20242;-75
2023/01/12 13:15:34;;;;;;;12.82;3.25;;;19.40;53.90;;;;;;5044390;28;20195;-74
2023/01/12 13:18:02;;;;;;;14.48;2.80;;;19.50;54.00;;;;;;5043950;28;20227;-76
2023/01/12 13:21:01;;;;;;;11.57;2.70;;;19.50;54.00;;;;;;5045251;28;20251;-73
2023/01/12 13:24:15;;;;;;;11.10;2.47;;;19.50;54.00;;;;;;5041063;28;20283;-76
2023/01/12 13:26:45;;;;;;;10.65;2.67;;;19.50;54.00;;;;;;5044196;28;20298;-80
2023/01/12 13:29:49;;;;;;;14.80;3.58;;;19.50;54.10;;;;;;5028374;28;20220;-78
2023/01/12 13:32:42;;;;;;;9.68;2.42;;;19.50;54.00;;;;;;5043524;28;20208;-74
2023/01/12 13:35:53;;;;;;;10.35;2.63;;;19.50;54.10;;;;;;5047704;28;20187;-80
2023/01/12 13:38:35;;;;;;;17.00;2.80;;;19.40;54.10;;;;;;5006095;28;20277;-78
2023/01/12 13:41:11;;;;;;;13.27;3.20;;;19.50;54.20;;;;;;5109292;28;20205;-78
2023/01/12 13:43:42;;;;;;;13.18;3.50;;;19.50;54.10;;;;;;5111227;28;20704;-75
2023/01/12 13:46:14;;;;;;;11.75;2.72;;;19.50;54.10;;;;;;5111247;28;20664;-79
2023/01/12 13:48:45;;;;;;;11.40;2.97;;;19.50;54.10;;;;;;5110602;28;20217;-77
2023/01/12 13:51:16;;;;;;;10.90;2.97;;;19.50;54.10;;;;;;5109895;28;20197;-73
2023/01/12 13:53:43;;;;;;;9.85;3.08;;;19.50;54.00;;;;;;5110700;28;20235;-79
2023/01/12 13:56:20;;;;;;;9.60;2.85;;;19.50;54.10;;;;;;5110178;28;20208;-77
2023/01/12 13:58:58;;;;;;;8.75;2.40;;;19.50;54.80;;;;;;5107983;28;20762;-77
2023/01/12 14:01:28;;;;;;;10.73;2.85;;;19.50;54.10;;;;;;5110156;28;20370;-73
2023/01/12 14:04:10;;;;;;;10.07;3.03;;;19.50;54.10;;;;;;5110363;28;20308;-78
2023/01/12 14:06:47;;;;;;;9.13;2.92;;;19.50;54.10;;;;;;5110735;28;20189;-76